sensor_id;sensor_type;location;lat;lon;timestamp;temperature;humidity
64689;DHT22;62504;46.070;14.492;2023-10-09T00:02:06;16.10;99.90
64689;DHT22;62504;46.070;14.492;2023-10-09T00:04:32;16.10;99.90
64689;DHT22;62504;46.070;14.492;2023-10-09T00:07:04;16.00;99.90
64689;DHT22;62504;46.070;14.492;2023-10-09T00:09:37;16.00;99.90
64689;DHT22;62504;46.070;14.492;2023-10-09T00:12:16;15.90;99.90
64689;DHT22;62504;46.070;14.492;2023-10-09T00:14:42;16.00;99.90
64689;DHT22;62504;46.070;14.492;2023-10-09T00:17:16;15.90;99.90
64689;DHT22;62504;46.070;14.492;2023-10-09T00:19:46;15.90;99.90
64689;DHT22;62504;46.070;14.492;2023-10-09T00:22:15;15.90;99.90
64689;DHT22;62504;46.070;14.492;2023-10-09T00:24:50;15.90;99.90
64689;DHT22;62504;46.070;14.492;2023-10-09T00:27:25;16.00;99.90
64689;DHT22;62504;46.070;14.492;2023-10-09T00:29:52;16.00;99.90
64689;DHT22;62504;46.070;14.492;2023-10-09T00:32:20;15.90;99.90
64689;DHT22;62504;46.070;14.492;2023-10-09T00:34:55;15.90;99.90
64689;DHT22;62504;46.070;14.492;2023-10-09T00:37:25;15.80;99.90
64689;DHT22;62504;46.070;14.492;2023-10-09T00:39:52;15.80;99.90
64689;DHT22;62504;46.070;14.492;2023-10-09T00:42:25;15.80;99.90
64689;DHT22;62504;46.070;14.492;2023-10-09T00:45:00;15.80;99.90
64689;DHT22;62504;46.070;14.492;2023-10-09T00:47:30;15.70;99.90
64689;DHT22;62504;46.070;14.492;2023-10-09T00:50:02;15.60;99.90
64689;DHT22;62504;46.070;14.492;2023-10-09T00:52:57;15.50;99.90
64689;DHT22;62504;46.070;14.492;2023-10-09T00:55:34;15.50;99.90
64689;DHT22;62504;46.070;14.492;2023-10-09T00:58:21;15.50;99.90
64689;DHT22;62504;46.070;14.492;2023-10-09T01:00:52;15.50;99.90
64689;DHT22;62504;46.070;14.492;2023-10-09T01:03:19;15.50;99.90
64689;DHT22;62504;46.070;14.492;2023-10-09T01:05:53;15.50;99.90
64689;DHT22;62504;46.070;14.492;2023-10-09T01:08:35;15.50;99.90
64689;DHT22;62504;46.070;14.492;2023-10-09T01:11:14;15.50;99.90
64689;DHT22;62504;46.070;14.492;2023-10-09T01:13:55;15.40;99.90
64689;DHT22;62504;46.070;14.492;2023-10-09T01:16:28;15.50;99.90
64689;DHT22;62504;46.070;14.492;2023-10-09T01:18:57;15.50;99.90
64689;DHT22;62504;46.070;14.492;2023-10-09T01:21:23;15.40;99.90
64689;DHT22;62504;46.070;14.492;2023-10-09T01:23:53;15.40;99.90
64689;DHT22;62504;46.070;14.492;2023-10-09T01:26:41;15.40;99.90
64689;DHT22;62504;46.070;14.492;2023-10-09T01:29:13;15.40;99.90
64689;DHT22;62504;46.070;14.492;2023-10-09T01:31:46;15.40;99.90
64689;DHT22;62504;46.070;14.492;2023-10-09T01:34:25;15.40;99.90
64689;DHT22;62504;46.070;14.492;2023-10-09T01:37:08;15.40;99.90
64689;DHT22;62504;46.070;14.492;2023-10-09T01:39:50;15.50;99.90
64689;DHT22;62504;46.070;14.492;2023-10-09T01:42:17;15.50;99.90
64689;DHT22;62504;46.070;14.492;2023-10-09T01:45:10;15.50;99.90
64689;DHT22;62504;46.070;14.492;2023-10-09T01:47:37;15.50;99.90
64689;DHT22;62504;46.070;14.492;2023-10-09T01:50:07;15.40;99.90
64689;DHT22;62504;46.070;14.492;2023-10-09T01:52:45;15.30;99.90
64689;DHT22;62504;46.070;14.492;2023-10-09T01:55:11;15.30;99.90
64689;DHT22;62504;46.070;14.492;2023-10-09T01:57:56;15.30;99.90
64689;DHT22;62504;46.070;14.492;2023-10-09T02:00:27;15.30;99.90
64689;DHT22;62504;46.070;14.492;2023-10-09T02:02:54;15.30;99.90
64689;DHT22;62504;46.070;14.492;2023-10-09T02:05:20;15.20;99.90
64689;DHT22;62504;46.070;14.492;2023-10-09T02:07:46;15.20;99.90
64689;DHT22;62504;46.070;14.492;2023-10-09T02:10:19;15.10;99.90
64689;DHT22;62504;46.070;14.492;2023-10-09T02:12:56;15.20;99.90
64689;DHT22;62504;46.070;14.492;2023-10-09T02:15:29;15.20;99.90
64689;DHT22;62504;46.070;14.492;2023-10-09T02:18:14;15.30;99.90
64689;DHT22;62504;46.070;14.492;2023-10-09T02:20:50;15.30;99.90
64689;DHT22;62504;46.070;14.492;2023-10-09T02:23:21;15.30;99.90
64689;DHT22;62504;46.070;14.492;2023-10-09T02:25:58;15.20;99.90
64689;DHT22;62504;46.070;14.492;2023-10-09T02:28:27;15.30;99.90
64689;DHT22;62504;46.070;14.492;2023-10-09T02:30:58;15.30;99.90
64689;DHT22;62504;46.070;14.492;2023-10-09T02:33:27;15.30;99.90
64689;DHT22;62504;46.070;14.492;2023-10-09T02:35:58;15.30;99.90
64689;DHT22;62504;46.070;14.492;2023-10-09T02:38:30;15.30;99.90
64689;DHT22;62504;46.070;14.492;2023-10-09T02:40:59;15.30;99.90
64689;DHT22;62504;46.070;14.492;2023-10-09T02:43:31;15.30;99.90
64689;DHT22;62504;46.070;14.492;2023-10-09T02:46:10;15.20;99.90
64689;DHT22;62504;46.070;14.492;2023-10-09T02:48:59;15.20;99.90
64689;DHT22;62504;46.070;14.492;2023-10-09T02:51:26;15.20;99.90
64689;DHT22;62504;46.070;14.492;2023-10-09T02:53:56;15.30;99.90
64689;DHT22;62504;46.070;14.492;2023-10-09T02:56:25;15.30;99.90
64689;DHT22;62504;46.070;14.492;2023-10-09T02:59:13;15.30;99.90
64689;DHT22;62504;46.070;14.492;2023-10-09T03:01:40;15.30;99.90
64689;DHT22;62504;46.070;14.492;2023-10-09T03:04:06;15.20;99.90
64689;DHT22;62504;46.070;14.492;2023-10-09T03:06:33;15.20;99.90
64689;DHT22;62504;46.070;14.492;2023-10-09T03:09:03;15.20;99.90
64689;DHT22;62504;46.070;14.492;2023-10-09T03:11:46;15.20;99.90
64689;DHT22;62504;46.070;14.492;2023-10-09T03:14:14;15.20;99.90
64689;DHT22;62504;46.070;14.492;2023-10-09T03:16:41;15.20;99.90
64689;DHT22;62504;46.070;14.492;2023-10-09T03:19:07;15.20;99.90
64689;DHT22;62504;46.070;14.492;2023-10-09T03:21:32;15.20;99.90
64689;DHT22;62504;46.070;14.492;2023-10-09T03:23:58;15.30;99.90
64689;DHT22;62504;46.070;14.492;2023-10-09T03:26:24;15.30;99.90
64689;DHT22;62504;46.070;14.492;2023-10-09T03:28:51;15.30;99.90
64689;DHT22;62504;46.070;14.492;2023-10-09T03:31:18;15.30;99.90
64689;DHT22;62504;46.070;14.492;2023-10-09T03:33:43;15.30;99.90
64689;DHT22;62504;46.070;14.492;2023-10-09T03:36:09;15.30;99.90
64689;DHT22;62504;46.070;14.492;2023-10-09T03:38:41;15.20;99.90
64689;DHT22;62504;46.070;14.492;2023-10-09T03:41:08;15.20;99.90
64689;DHT22;62504;46.070;14.492;2023-10-09T03:43:38;15.10;99.90
64689;DHT22;62504;46.070;14.492;2023-10-09T03:46:10;15.10;99.90
64689;DHT22;62504;46.070;14.492;2023-10-09T03:48:59;15.20;99.90
64689;DHT22;62504;46.070;14.492;2023-10-09T03:51:28;15.20;99.90
64689;DHT22;62504;46.070;14.492;2023-10-09T03:53:55;15.20;99.90
64689;DHT22;62504;46.070;14.492;2023-10-09T03:56:20;15.20;99.90
64689;DHT22;62504;46.070;14.492;2023-10-09T03:58:50;15.20;99.90
64689;DHT22;62504;46.070;14.492;2023-10-09T04:01:18;15.20;99.90
64689;DHT22;62504;46.070;14.492;2023-10-09T04:03:55;15.10;99.90
64689;DHT22;62504;46.070;14.492;2023-10-09T04:06:22;15.10;99.90
64689;DHT22;62504;46.070;14.492;2023-10-09T04:08:48;15.10;99.90
64689;DHT22;62504;46.070;14.492;2023-10-09T04:11:16;15.00;99.90
64689;DHT22;62504;46.070;14.492;2023-10-09T04:13:44;15.00;99.90
64689;DHT22;62504;46.070;14.492;2023-10-09T04:16:12;15.00;99.90
64689;DHT22;62504;46.070;14.492;2023-10-09T04:18:57;15.00;99.90
64689;DHT22;62504;46.070;14.492;2023-10-09T04:21:26;14.90;99.90
64689;DHT22;62504;46.070;14.492;2023-10-09T04:23:54;14.90;99.90
64689;DHT22;62504;46.070;14.492;2023-10-09T04:26:46;14.90;99.90
64689;DHT22;62504;46.070;14.492;2023-10-09T04:29:13;14.90;99.90
64689;DHT22;62504;46.070;14.492;2023-10-09T04:31:59;14.90;99.90
64689;DHT22;62504;46.070;14.492;2023-10-09T04:34:26;14.90;99.90
64689;DHT22;62504;46.070;14.492;2023-10-09T04:37:15;14.90;99.90
64689;DHT22;62504;46.070;14.492;2023-10-09T04:40:00;14.90;99.90
64689;DHT22;62504;46.070;14.492;2023-10-09T04:42:39;14.90;99.90
64689;DHT22;62504;46.070;14.492;2023-10-09T04:45:14;14.90;99.90
64689;DHT22;62504;46.070;14.492;2023-10-09T04:47:40;14.90;99.90
64689;DHT22;62504;46.070;14.492;2023-10-09T04:50:15;14.90;99.90
64689;DHT22;62504;46.070;14.492;2023-10-09T04:52:41;14.90;99.90
64689;DHT22;62504;46.070;14.492;2023-10-09T04:55:08;14.90;99.90
64689;DHT22;62504;46.070;14.492;2023-10-09T04:57:38;14.90;99.90
64689;DHT22;62504;46.070;14.492;2023-10-09T05:00:08;14.80;99.90
64689;DHT22;62504;46.070;14.492;2023-10-09T05:02:59;14.80;99.90
64689;DHT22;62504;46.070;14.492;2023-10-09T05:05:30;14.80;99.90
64689;DHT22;62504;46.070;14.492;2023-10-09T05:08:11;14.80;99.90
64689;DHT22;62504;46.070;14.492;2023-10-09T05:13:28;14.70;99.90
64689;DHT22;62504;46.070;14.492;2023-10-09T05:18:55;14.60;99.90
64689;DHT22;62504;46.070;14.492;2023-10-09T05:21:58;14.60;99.90
64689;DHT22;62504;46.070;14.492;2023-10-09T05:24:18;14.60;99.90
64689;DHT22;62504;46.070;14.492;2023-10-09T05:26:50;14.60;99.90
64689;DHT22;62504;46.070;14.492;2023-10-09T05:29:23;14.70;99.90
64689;DHT22;62504;46.070;14.492;2023-10-09T05:32:03;14.70;99.90
64689;DHT22;62504;46.070;14.492;2023-10-09T05:34:32;14.70;99.90
64689;DHT22;62504;46.070;14.492;2023-10-09T05:37:16;14.70;99.90
64689;DHT22;62504;46.070;14.492;2023-10-09T05:39:46;14.70;99.90
64689;DHT22;62504;46.070;14.492;2023-10-09T05:42:30;14.70;99.90
64689;DHT22;62504;46.070;14.492;2023-10-09T05:45:03;14.70;99.90
64689;DHT22;62504;46.070;14.492;2023-10-09T05:47:52;14.70;99.90
64689;DHT22;62504;46.070;14.492;2023-10-09T05:50:50;14.60;99.90
64689;DHT22;62504;46.070;14.492;2023-10-09T05:53:16;14.70;99.90
64689;DHT22;62504;46.070;14.492;2023-10-09T05:56:00;14.70;99.90
64689;DHT22;62504;46.070;14.492;2023-10-09T05:58:44;14.70;99.90
64689;DHT22;62504;46.070;14.492;2023-10-09T06:01:28;14.70;99.90
64689;DHT22;62504;46.070;14.492;2023-10-09T06:04:17;14.70;99.90
64689;DHT22;62504;46.070;14.492;2023-10-09T06:06:44;14.80;99.90
64689;DHT22;62504;46.070;14.492;2023-10-09T06:09:14;14.80;99.90
64689;DHT22;62504;46.070;14.492;2023-10-09T06:11:44;14.90;99.90
64689;DHT22;62504;46.070;14.492;2023-10-09T06:14:13;14.90;99.90
64689;DHT22;62504;46.070;14.492;2023-10-09T06:16:41;15.00;99.90
64689;DHT22;62504;46.070;14.492;2023-10-09T06:19:13;15.00;99.90
64689;DHT22;62504;46.070;14.492;2023-10-09T06:21:46;15.10;99.90
64689;DHT22;62504;46.070;14.492;2023-10-09T06:24:18;15.10;99.90
64689;DHT22;62504;46.070;14.492;2023-10-09T06:26:45;15.20;99.90
64689;DHT22;62504;46.070;14.492;2023-10-09T06:29:23;15.20;99.90
64689;DHT22;62504;46.070;14.492;2023-10-09T06:32:08;15.30;99.90
64689;DHT22;62504;46.070;14.492;2023-10-09T06:34:54;15.30;99.90
64689;DHT22;62504;46.070;14.492;2023-10-09T06:37:25;15.50;99.90
64689;DHT22;62504;46.070;14.492;2023-10-09T06:39:52;15.60;99.90
64689;DHT22;62504;46.070;14.492;2023-10-09T06:42:21;15.70;99.90
64689;DHT22;62504;46.070;14.492;2023-10-09T06:45:06;15.80;99.90
64689;DHT22;62504;46.070;14.492;2023-10-09T06:47:43;16.00;99.90
64689;DHT22;62504;46.070;14.492;2023-10-09T06:50:30;16.10;99.90
64689;DHT22;62504;46.070;14.492;2023-10-09T06:53:14;16.30;99.90
64689;DHT22;62504;46.070;14.492;2023-10-09T06:55:40;16.40;99.90
64689;DHT22;62504;46.070;14.492;2023-10-09T06:58:16;16.60;99.90
64689;DHT22;62504;46.070;14.492;2023-10-09T07:00:50;16.60;99.90
64689;DHT22;62504;46.070;14.492;2023-10-09T07:03:51;16.70;99.90
64689;DHT22;62504;46.070;14.492;2023-10-09T07:06:21;16.80;99.90
64689;DHT22;62504;46.070;14.492;2023-10-09T07:08:56;16.60;99.90
64689;DHT22;62504;46.070;14.492;2023-10-09T07:11:41;16.70;99.90
64689;DHT22;62504;46.070;14.492;2023-10-09T07:17:00;16.70;99.90
64689;DHT22;62504;46.070;14.492;2023-10-09T07:19:29;16.80;99.90
64689;DHT22;62504;46.070;14.492;2023-10-09T07:22:07;16.80;99.90
64689;DHT22;62504;46.070;14.492;2023-10-09T07:25:02;16.80;99.90
64689;DHT22;62504;46.070;14.492;2023-10-09T07:27:57;16.90;99.90
64689;DHT22;62504;46.070;14.492;2023-10-09T07:30:25;17.00;99.90
64689;DHT22;62504;46.070;14.492;2023-10-09T07:33:07;17.10;99.90
64689;DHT22;62504;46.070;14.492;2023-10-09T07:35:37;17.00;99.90
64689;DHT22;62504;46.070;14.492;2023-10-09T07:38:15;17.00;99.90
64689;DHT22;62504;46.070;14.492;2023-10-09T07:40:46;17.20;99.90
64689;DHT22;62504;46.070;14.492;2023-10-09T07:43:25;17.10;99.90
64689;DHT22;62504;46.070;14.492;2023-10-09T07:45:54;17.30;99.90
64689;DHT22;62504;46.070;14.492;2023-10-09T07:48:40;17.50;99.90
64689;DHT22;62504;46.070;14.492;2023-10-09T07:51:18;17.60;99.90
64689;DHT22;62504;46.070;14.492;2023-10-09T07:53:52;17.70;99.90
64689;DHT22;62504;46.070;14.492;2023-10-09T07:56:42;17.80;99.90
64689;DHT22;62504;46.070;14.492;2023-10-09T07:59:15;17.90;99.90
64689;DHT22;62504;46.070;14.492;2023-10-09T08:01:50;18.00;99.90
64689;DHT22;62504;46.070;14.492;2023-10-09T08:07:11;18.20;99.90
64689;DHT22;62504;46.070;14.492;2023-10-09T08:09:57;18.30;99.90
64689;DHT22;62504;46.070;14.492;2023-10-09T08:12:42;18.30;99.90
64689;DHT22;62504;46.070;14.492;2023-10-09T08:15:23;18.30;99.90
64689;DHT22;62504;46.070;14.492;2023-10-09T08:17:56;18.00;99.90
64689;DHT22;62504;46.070;14.492;2023-10-09T08:20:29;17.90;99.90
64689;DHT22;62504;46.070;14.492;2023-10-09T08:23:13;17.80;99.90
64689;DHT22;62504;46.070;14.492;2023-10-09T08:25:49;18.00;99.90
64689;DHT22;62504;46.070;14.492;2023-10-09T08:28:38;18.00;99.90
64689;DHT22;62504;46.070;14.492;2023-10-09T08:31:17;18.30;99.90
64689;DHT22;62504;46.070;14.492;2023-10-09T08:34:06;18.50;99.90
64689;DHT22;62504;46.070;14.492;2023-10-09T08:36:35;18.50;99.90
64689;DHT22;62504;46.070;14.492;2023-10-09T08:39:03;18.40;99.90
64689;DHT22;62504;46.070;14.492;2023-10-09T08:41:54;18.70;99.90
64689;DHT22;62504;46.070;14.492;2023-10-09T08:44:24;19.00;99.90
64689;DHT22;62504;46.070;14.492;2023-10-09T08:46:54;18.90;99.90
64689;DHT22;62504;46.070;14.492;2023-10-09T08:49:20;19.10;99.90
64689;DHT22;62504;46.070;14.492;2023-10-09T08:51:47;19.60;99.90
64689;DHT22;62504;46.070;14.492;2023-10-09T08:54:14;19.80;99.90
64689;DHT22;62504;46.070;14.492;2023-10-09T08:56:41;19.90;99.90
64689;DHT22;62504;46.070;14.492;2023-10-09T08:59:16;20.00;99.90
64689;DHT22;62504;46.070;14.492;2023-10-09T09:01:49;19.90;99.90
64689;DHT22;62504;46.070;14.492;2023-10-09T09:04:38;20.20;99.90
64689;DHT22;62504;46.070;14.492;2023-10-09T09:07:25;20.90;99.90
64689;DHT22;62504;46.070;14.492;2023-10-09T09:09:56;21.80;99.90
64689;DHT22;62504;46.070;14.492;2023-10-09T09:12:43;22.30;99.90
64689;DHT22;62504;46.070;14.492;2023-10-09T09:15:14;22.80;99.90
64689;DHT22;62504;46.070;14.492;2023-10-09T09:18:03;23.20;99.90
64689;DHT22;62504;46.070;14.492;2023-10-09T09:20:32;23.10;99.90
64689;DHT22;62504;46.070;14.492;2023-10-09T09:23:02;23.00;99.90
64689;DHT22;62504;46.070;14.492;2023-10-09T09:28:26;22.10;99.90
64689;DHT22;62504;46.070;14.492;2023-10-09T09:31:10;21.60;99.90
64689;DHT22;62504;46.070;14.492;2023-10-09T09:33:39;21.30;99.90
64689;DHT22;62504;46.070;14.492;2023-10-09T09:36:10;21.00;99.90
64689;DHT22;62504;46.070;14.492;2023-10-09T09:38:39;20.70;99.90
64689;DHT22;62504;46.070;14.492;2023-10-09T09:41:08;20.60;99.90
64689;DHT22;62504;46.070;14.492;2023-10-09T09:43:36;20.60;99.90
64689;DHT22;62504;46.070;14.492;2023-10-09T09:46:07;20.70;99.90
64689;DHT22;62504;46.070;14.492;2023-10-09T09:48:38;20.60;99.90
64689;DHT22;62504;46.070;14.492;2023-10-09T09:51:12;20.50;99.90
64689;DHT22;62504;46.070;14.492;2023-10-09T09:53:39;20.40;99.90
64689;DHT22;62504;46.070;14.492;2023-10-09T09:56:06;20.30;99.90
64689;DHT22;62504;46.070;14.492;2023-10-09T09:58:32;20.00;99.90
64689;DHT22;62504;46.070;14.492;2023-10-09T10:01:09;19.90;99.90
64689;DHT22;62504;46.070;14.492;2023-10-09T10:03:46;19.90;99.90
64689;DHT22;62504;46.070;14.492;2023-10-09T10:06:13;20.00;99.90
64689;DHT22;62504;46.070;14.492;2023-10-09T10:08:41;20.00;99.90
64689;DHT22;62504;46.070;14.492;2023-10-09T10:11:07;19.80;99.90
64689;DHT22;62504;46.070;14.492;2023-10-09T10:16:11;20.10;99.90
64689;DHT22;62504;46.070;14.492;2023-10-09T10:21:19;19.90;99.90
64689;DHT22;62504;46.070;14.492;2023-10-09T10:23:57;20.00;99.90
64689;DHT22;62504;46.070;14.492;2023-10-09T10:26:32;20.20;99.90
64689;DHT22;62504;46.070;14.492;2023-10-09T10:29:19;20.20;99.90
64689;DHT22;62504;46.070;14.492;2023-10-09T10:31:58;20.30;99.90
64689;DHT22;62504;46.070;14.492;2023-10-09T10:35:00;20.40;99.90
64689;DHT22;62504;46.070;14.492;2023-10-09T10:37:37;20.20;99.90
64689;DHT22;62504;46.070;14.492;2023-10-09T10:40:09;20.20;99.90
64689;DHT22;62504;46.070;14.492;2023-10-09T10:43:03;20.10;99.90
64689;DHT22;62504;46.070;14.492;2023-10-09T10:45:39;20.20;99.90
64689;DHT22;62504;46.070;14.492;2023-10-09T10:48:11;20.30;99.90
64689;DHT22;62504;46.070;14.492;2023-10-09T10:51:03;20.30;99.90
64689;DHT22;62504;46.070;14.492;2023-10-09T10:53:30;20.10;99.90
64689;DHT22;62504;46.070;14.492;2023-10-09T10:56:05;20.10;99.90
64689;DHT22;62504;46.070;14.492;2023-10-09T10:58:51;19.90;99.90
64689;DHT22;62504;46.070;14.492;2023-10-09T11:01:40;19.70;99.90
64689;DHT22;62504;46.070;14.492;2023-10-09T11:04:17;19.80;99.90
64689;DHT22;62504;46.070;14.492;2023-10-09T11:06:56;19.80;99.90
64689;DHT22;62504;46.070;14.492;2023-10-09T11:09:50;19.70;99.90
64689;DHT22;62504;46.070;14.492;2023-10-09T11:12:28;19.50;99.90
64689;DHT22;62504;46.070;14.492;2023-10-09T11:15:13;19.50;99.90
64689;DHT22;62504;46.070;14.492;2023-10-09T11:20:39;19.70;99.90
64689;DHT22;62504;46.070;14.492;2023-10-09T11:23:06;19.70;99.90
64689;DHT22;62504;46.070;14.492;2023-10-09T11:25:38;19.70;99.90
64689;DHT22;62504;46.070;14.492;2023-10-09T11:28:19;19.70;99.90
64689;DHT22;62504;46.070;14.492;2023-10-09T11:31:14;19.90;99.90
64689;DHT22;62504;46.070;14.492;2023-10-09T11:33:47;20.00;99.90
64689;DHT22;62504;46.070;14.492;2023-10-09T11:36:21;20.00;99.90
64689;DHT22;62504;46.070;14.492;2023-10-09T11:39:00;20.10;99.90
64689;DHT22;62504;46.070;14.492;2023-10-09T11:41:47;20.10;99.90
64689;DHT22;62504;46.070;14.492;2023-10-09T11:44:15;20.20;99.90
64689;DHT22;62504;46.070;14.492;2023-10-09T11:47:03;20.30;99.90
64689;DHT22;62504;46.070;14.492;2023-10-09T11:49:52;20.20;99.90
64689;DHT22;62504;46.070;14.492;2023-10-09T11:52:31;20.30;99.90
64689;DHT22;62504;46.070;14.492;2023-10-09T11:55:05;20.40;99.90
64689;DHT22;62504;46.070;14.492;2023-10-09T11:57:40;20.40;99.90
64689;DHT22;62504;46.070;14.492;2023-10-09T12:00:07;20.40;99.90
64689;DHT22;62504;46.070;14.492;2023-10-09T12:02:36;20.30;99.90
64689;DHT22;62504;46.070;14.492;2023-10-09T12:05:10;20.30;99.90
64689;DHT22;62504;46.070;14.492;2023-10-09T12:07:44;20.30;99.90
64689;DHT22;62504;46.070;14.492;2023-10-09T12:10:09;20.30;99.90
64689;DHT22;62504;46.070;14.492;2023-10-09T12:12:36;20.50;99.90
64689;DHT22;62504;46.070;14.492;2023-10-09T12:15:02;20.40;99.90
64689;DHT22;62504;46.070;14.492;2023-10-09T12:17:30;20.40;99.90
64689;DHT22;62504;46.070;14.492;2023-10-09T12:19:56;20.50;99.90
64689;DHT22;62504;46.070;14.492;2023-10-09T12:22:22;20.60;99.90
64689;DHT22;62504;46.070;14.492;2023-10-09T12:24:52;20.70;99.90
64689;DHT22;62504;46.070;14.492;2023-10-09T12:27:18;20.70;99.90
64689;DHT22;62504;46.070;14.492;2023-10-09T12:29:46;20.80;99.90
64689;DHT22;62504;46.070;14.492;2023-10-09T12:32:11;20.80;99.90
64689;DHT22;62504;46.070;14.492;2023-10-09T12:34:37;20.80;99.90
64689;DHT22;62504;46.070;14.492;2023-10-09T12:37:04;20.80;99.90
64689;DHT22;62504;46.070;14.492;2023-10-09T12:39:30;20.80;99.90
64689;DHT22;62504;46.070;14.492;2023-10-09T12:42:01;20.70;99.90
64689;DHT22;62504;46.070;14.492;2023-10-09T12:44:37;20.80;99.90
64689;DHT22;62504;46.070;14.492;2023-10-09T12:47:09;20.80;99.90
64689;DHT22;62504;46.070;14.492;2023-10-09T12:49:37;20.90;99.90
64689;DHT22;62504;46.070;14.492;2023-10-09T12:52:09;20.90;99.90
64689;DHT22;62504;46.070;14.492;2023-10-09T12:54:44;20.80;99.90
64689;DHT22;62504;46.070;14.492;2023-10-09T12:57:13;20.90;99.90
64689;DHT22;62504;46.070;14.492;2023-10-09T12:59:40;20.90;99.90
64689;DHT22;62504;46.070;14.492;2023-10-09T13:02:12;20.80;99.90
64689;DHT22;62504;46.070;14.492;2023-10-09T13:04:39;20.70;99.90
64689;DHT22;62504;46.070;14.492;2023-10-09T13:07:08;20.80;99.90
64689;DHT22;62504;46.070;14.492;2023-10-09T13:09:33;20.80;99.90
64689;DHT22;62504;46.070;14.492;2023-10-09T13:12:08;20.80;99.90
64689;DHT22;62504;46.070;14.492;2023-10-09T13:14:34;20.80;99.90
64689;DHT22;62504;46.070;14.492;2023-10-09T13:17:01;20.80;99.90
64689;DHT22;62504;46.070;14.492;2023-10-09T13:19:34;20.80;99.90
64689;DHT22;62504;46.070;14.492;2023-10-09T13:22:03;20.90;99.90
64689;DHT22;62504;46.070;14.492;2023-10-09T13:24:29;20.90;99.90
64689;DHT22;62504;46.070;14.492;2023-10-09T13:26:56;20.90;99.90
64689;DHT22;62504;46.070;14.492;2023-10-09T13:29:24;20.90;99.90
64689;DHT22;62504;46.070;14.492;2023-10-09T13:31:51;21.00;99.90
64689;DHT22;62504;46.070;14.492;2023-10-09T13:34:23;21.00;99.90
64689;DHT22;62504;46.070;14.492;2023-10-09T13:36:53;21.00;99.90
64689;DHT22;62504;46.070;14.492;2023-10-09T13:39:19;21.10;99.90
64689;DHT22;62504;46.070;14.492;2023-10-09T13:41:46;21.20;99.90
64689;DHT22;62504;46.070;14.492;2023-10-09T13:44:12;21.10;99.90
64689;DHT22;62504;46.070;14.492;2023-10-09T13:46:37;21.10;99.90
64689;DHT22;62504;46.070;14.492;2023-10-09T13:49:11;21.10;99.90
64689;DHT22;62504;46.070;14.492;2023-10-09T13:51:43;21.10;99.90
64689;DHT22;62504;46.070;14.492;2023-10-09T13:54:13;21.10;99.90
64689;DHT22;62504;46.070;14.492;2023-10-09T13:56:50;21.20;99.90
64689;DHT22;62504;46.070;14.492;2023-10-09T13:59:22;21.20;99.90
64689;DHT22;62504;46.070;14.492;2023-10-09T14:01:50;21.20;99.90
64689;DHT22;62504;46.070;14.492;2023-10-09T14:04:16;21.20;99.90
64689;DHT22;62504;46.070;14.492;2023-10-09T14:06:45;21.20;99.90
64689;DHT22;62504;46.070;14.492;2023-10-09T14:09:12;21.20;99.90
64689;DHT22;62504;46.070;14.492;2023-10-09T14:11:55;21.20;99.90
64689;DHT22;62504;46.070;14.492;2023-10-09T14:14:35;21.30;99.90
64689;DHT22;62504;46.070;14.492;2023-10-09T14:17:05;21.20;99.90
64689;DHT22;62504;46.070;14.492;2023-10-09T14:19:40;21.20;99.90
64689;DHT22;62504;46.070;14.492;2023-10-09T14:22:17;21.20;99.90
64689;DHT22;62504;46.070;14.492;2023-10-09T14:24:44;21.30;99.90
64689;DHT22;62504;46.070;14.492;2023-10-09T14:27:11;21.20;99.90
64689;DHT22;62504;46.070;14.492;2023-10-09T14:29:47;21.20;99.90
64689;DHT22;62504;46.070;14.492;2023-10-09T14:32:13;21.20;99.90
64689;DHT22;62504;46.070;14.492;2023-10-09T14:34:40;21.10;99.90
64689;DHT22;62504;46.070;14.492;2023-10-09T14:37:13;21.10;99.90
64689;DHT22;62504;46.070;14.492;2023-10-09T14:39:41;21.20;99.90
64689;DHT22;62504;46.070;14.492;2023-10-09T14:42:07;21.10;99.90
64689;DHT22;62504;46.070;14.492;2023-10-09T14:44:36;21.10;99.90
64689;DHT22;62504;46.070;14.492;2023-10-09T14:47:06;21.00;99.90
64689;DHT22;62504;46.070;14.492;2023-10-09T14:49:33;21.00;99.90
64689;DHT22;62504;46.070;14.492;2023-10-09T14:52:09;21.00;99.90
64689;DHT22;62504;46.070;14.492;2023-10-09T14:54:36;20.90;99.90
64689;DHT22;62504;46.070;14.492;2023-10-09T14:57:02;20.80;99.90
64689;DHT22;62504;46.070;14.492;2023-10-09T14:59:32;20.90;99.90
64689;DHT22;62504;46.070;14.492;2023-10-09T15:01:58;20.80;99.90
64689;DHT22;62504;46.070;14.492;2023-10-09T15:04:24;20.90;99.90
64689;DHT22;62504;46.070;14.492;2023-10-09T15:06:52;20.80;99.90
64689;DHT22;62504;46.070;14.492;2023-10-09T15:09:18;20.80;99.90
64689;DHT22;62504;46.070;14.492;2023-10-09T15:12:04;20.80;99.90
64689;DHT22;62504;46.070;14.492;2023-10-09T15:14:33;20.70;99.90
64689;DHT22;62504;46.070;14.492;2023-10-09T15:16:59;20.70;99.90
64689;DHT22;62504;46.070;14.492;2023-10-09T15:19:24;20.70;99.90
64689;DHT22;62504;46.070;14.492;2023-10-09T15:21:55;20.60;99.90
64689;DHT22;62504;46.070;14.492;2023-10-09T15:24:21;20.60;99.90
64689;DHT22;62504;46.070;14.492;2023-10-09T15:26:48;20.50;99.90
64689;DHT22;62504;46.070;14.492;2023-10-09T15:29:27;20.50;99.90
64689;DHT22;62504;46.070;14.492;2023-10-09T15:31:59;20.60;99.90
64689;DHT22;62504;46.070;14.492;2023-10-09T15:34:30;20.50;99.90
64689;DHT22;62504;46.070;14.492;2023-10-09T15:36:56;20.50;99.90
64689;DHT22;62504;46.070;14.492;2023-10-09T15:39:22;20.50;99.90
64689;DHT22;62504;46.070;14.492;2023-10-09T15:41:50;20.40;99.90
64689;DHT22;62504;46.070;14.492;2023-10-09T15:44:17;20.40;99.90
64689;DHT22;62504;46.070;14.492;2023-10-09T15:46:42;20.40;99.90
64689;DHT22;62504;46.070;14.492;2023-10-09T15:49:11;20.30;99.90
64689;DHT22;62504;46.070;14.492;2023-10-09T15:51:39;20.40;99.90
64689;DHT22;62504;46.070;14.492;2023-10-09T15:54:05;20.40;99.90
64689;DHT22;62504;46.070;14.492;2023-10-09T15:56:30;20.30;99.90
64689;DHT22;62504;46.070;14.492;2023-10-09T15:58:56;20.30;99.90
64689;DHT22;62504;46.070;14.492;2023-10-09T16:01:22;20.30;99.90
64689;DHT22;62504;46.070;14.492;2023-10-09T16:03:48;20.30;99.90
64689;DHT22;62504;46.070;14.492;2023-10-09T16:06:15;20.20;99.90
64689;DHT22;62504;46.070;14.492;2023-10-09T16:08:46;20.20;99.90
64689;DHT22;62504;46.070;14.492;2023-10-09T16:11:17;20.20;99.90
64689;DHT22;62504;46.070;14.492;2023-10-09T16:13:43;20.20;99.90
64689;DHT22;62504;46.070;14.492;2023-10-09T16:16:09;20.10;99.90